createdAt,value
2022-08-28T00:00:53.374Z,98623.16
2022-08-28T00:03:54.982Z,98625.31
2022-08-28T00:06:56.468Z,98620.13
2022-08-28T00:09:57.996Z,98626.16
2022-08-28T00:13:01.053Z,98629.72
2022-08-28T00:16:02.748Z,98630.69
2022-08-28T00:19:04.583Z,98624.53
2022-08-28T00:22:07.519Z,98628.19
2022-08-28T00:25:10.311Z,98628.59
2022-08-28T00:28:23.675Z,98625.34
2022-08-28T00:31:25.948Z,98627.25
2022-08-28T00:34:33.009Z,98635.59
2022-08-28T00:37:35.471Z,98627.66
2022-08-28T00:40:38.082Z,98632.53
2022-08-28T00:43:42.128Z,98629.97
2022-08-28T00:46:45.770Z,98624.69
2022-08-28T00:49:49.441Z,98628.22
2022-08-28T00:52:53.188Z,98628.44
2022-08-28T00:55:54.984Z,98624.03
2022-08-28T00:58:59.884Z,98627.75
2022-08-28T01:02:01.813Z,98627.94
2022-08-28T01:05:04.259Z,98628.91
2022-08-28T01:08:06.346Z,98620.31
2022-08-28T01:11:08.893Z,98623.03
2022-08-28T01:14:13.034Z,98626.88
2022-08-28T01:17:15.520Z,98631.47
2022-08-28T01:20:18.794Z,98630.03
2022-08-28T01:23:25.498Z,98630.13
2022-08-28T01:26:29.825Z,98635.81
2022-08-28T01:29:31.547Z,98639.34
2022-08-28T01:32:34.680Z,98632.25
2022-08-28T01:35:38.321Z,98640.22
2022-08-28T01:38:40.682Z,98649.44
2022-08-28T01:41:46.663Z,98652.19
2022-08-28T01:44:49.195Z,98654.88
2022-08-28T01:47:51.372Z,98645.28
2022-08-28T01:50:53.079Z,98647.09
2022-08-28T01:53:54.554Z,98647.22
2022-08-28T01:56:57.815Z,98648.16
2022-08-28T02:00:00.041Z,98644.63
2022-08-28T02:03:02.153Z,98647.47
2022-08-28T02:06:04.168Z,98649.69
2022-08-28T02:09:06.461Z,98653.34
2022-08-28T02:12:16.501Z,98651.78
2022-08-28T02:15:18.163Z,98650.91
2022-08-28T02:18:20.372Z,98658.19
2022-08-28T02:21:22.002Z,98656.38
2022-08-28T02:24:26.409Z,98654.56
2022-08-28T02:27:29.688Z,98654.66
2022-08-28T02:30:31.592Z,98659.81
2022-08-28T02:33:33.723Z,98653.50
2022-08-28T02:36:35.399Z,98655.41
2022-08-28T02:39:37.203Z,98650.03
2022-08-28T02:42:40.284Z,98653.69
2022-08-28T02:45:42.228Z,98648.50
2022-08-28T02:48:43.818Z,98652.50
2022-08-28T02:51:46.646Z,98642.75
2022-08-28T02:54:48.187Z,98649.16
2022-08-28T02:57:52.795Z,98648.56
2022-08-28T03:00:54.669Z,98651.53
2022-08-28T03:03:56.338Z,98653.66
2022-08-28T03:06:57.991Z,98650.25
2022-08-28T03:10:00.107Z,98657.53
2022-08-28T03:13:04.273Z,98650.91
2022-08-28T03:16:06.167Z,98662.78
2022-08-28T03:19:07.721Z,98656.25
2022-08-28T03:22:09.235Z,98658.84
2022-08-28T03:25:11.532Z,98657.97
2022-08-28T03:28:14.629Z,98653.31
2022-08-28T03:31:18.208Z,98650.53
2022-08-28T03:34:19.788Z,98653.22
2022-08-28T03:37:21.465Z,98654.84
2022-08-28T03:40:23.012Z,98660.13
2022-08-28T03:43:27.287Z,98657.72
2022-08-28T03:46:29.698Z,98658.84
2022-08-28T03:49:31.891Z,98652.72
2022-08-28T03:52:33.569Z,98660.84
2022-08-28T03:55:35.193Z,98658.38
2022-08-28T03:58:38.506Z,98662.56
2022-08-28T04:01:40.692Z,98670.81
2022-08-28T04:04:42.415Z,98665.25
2022-08-28T04:07:44.067Z,98670.91
2022-08-28T04:10:46.866Z,98677.28
2022-08-28T04:13:49.881Z,98669.25
2022-08-28T04:16:51.588Z,98673.16
2022-08-28T04:19:56.699Z,98668.94
2022-08-28T04:22:58.377Z,98679.91
2022-08-28T04:26:04.265Z,98674.56
2022-08-28T04:29:07.529Z,98675.16
2022-08-28T04:32:09.278Z,98683.28
2022-08-28T04:35:14.978Z,98679.38
2022-08-28T04:38:16.513Z,98687.34
2022-08-28T04:41:18.245Z,98676.72
2022-08-28T04:44:21.106Z,98680.34
2022-08-28T04:47:23.468Z,98694.72
2022-08-28T04:50:25.408Z,98688.47
2022-08-28T04:53:27.170Z,98696.19
2022-08-28T04:56:31.667Z,98696.09
2022-08-28T04:59:34.585Z,98697.72
2022-08-28T05:02:36.208Z,98702.13
2022-08-28T05:05:41.015Z,98708.44
2022-08-28T05:08:42.715Z,98704.56
2022-08-28T05:11:44.916Z,98704.47
2022-08-28T05:14:50.905Z,98700.25
2022-08-28T05:17:52.671Z,98697.56
2022-08-28T05:20:54.363Z,98694.53
2022-08-28T05:23:57.623Z,98703.81
2022-08-28T05:26:59.233Z,98706.28
2022-08-28T05:30:02.409Z,98708.88
2022-08-28T05:33:04.346Z,98714.59
2022-08-28T05:36:07.030Z,98707.25
2022-08-28T05:39:09.904Z,98711.28
2022-08-28T05:42:11.749Z,98706.63
2022-08-28T05:45:14.942Z,98711.13
2022-08-28T05:48:16.839Z,98710.28
2022-08-28T05:51:19.543Z,98716.75
2022-08-28T05:54:23.903Z,98720.28
2022-08-28T05:57:25.456Z,98718.47
2022-08-28T06:00:28.564Z,98725.50
2022-08-28T06:03:30.078Z,98723.69
2022-08-28T06:06:34.461Z,98726.84
2022-08-28T06:09:36.013Z,98724.06
2022-08-28T06:12:37.661Z,98714.91
2022-08-28T06:15:43.256Z,98722.69
2022-08-28T06:18:44.872Z,98726.22
2022-08-28T06:21:51.593Z,98724.31
2022-08-28T06:24:54.017Z,98733.06
2022-08-28T06:27:55.988Z,98737.56
2022-08-28T06:31:23.330Z,98734.28
2022-08-28T06:34:25.860Z,98739.53
2022-08-28T06:37:27.387Z,98746.72
2022-08-28T06:40:29.769Z,98743.97
2022-08-28T06:43:31.536Z,98750.91
2022-08-28T06:46:35.236Z,98759.38
2022-08-28T06:49:38.119Z,98758.31
2022-08-28T06:52:39.732Z,98767.22
2022-08-28T06:55:43.850Z,98763.06
2022-08-28T06:58:50.060Z,98762.78
2022-08-28T07:01:55.956Z,98760.50
2022-08-28T07:04:58.144Z,98764.72
2022-08-28T07:08:00.256Z,98759.88
2022-08-28T07:11:14.438Z,98764.78
2022-08-28T07:14:16.180Z,98762.00
2022-08-28T07:17:19.178Z,98766.22
2022-08-28T07:20:20.730Z,98769.66
2022-08-28T07:23:25.256Z,98759.03
2022-08-28T07:26:27.943Z,98764.22
2022-08-28T07:29:30.811Z,98761.34
2022-08-28T07:32:34.063Z,98764.59
2022-08-28T07:35:35.799Z,98769.03
2022-08-28T07:38:38.032Z,98769.66
2022-08-28T07:41:42.804Z,98773.19
2022-08-28T07:44:50.628Z,98771.78
2022-08-28T07:47:53.507Z,98770.81
2022-08-28T07:50:55.116Z,98772.25
2022-08-28T07:53:57.605Z,98772.66
2022-08-28T07:56:59.292Z,98776.59
2022-08-28T08:00:00.862Z,98775.44
2022-08-28T08:03:05.105Z,98781.78
2022-08-28T08:06:07.201Z,98779.09
2022-08-28T08:09:09.822Z,98781.56
2022-08-28T08:12:12.338Z,98794.63
2022-08-28T08:15:16.145Z,98792.50
2022-08-28T08:18:19.269Z,98792.34
2022-08-28T08:21:28.341Z,98788.78
2022-08-28T08:24:32.034Z,98785.59
2022-08-28T08:27:33.635Z,98789.91
2022-08-28T08:30:35.433Z,98791.53
2022-08-28T08:33:39.149Z,98795.69
2022-08-28T08:36:40.721Z,98796.88
2022-08-28T08:39:43.005Z,98798.91
2022-08-28T08:42:46.704Z,98798.47
2022-08-28T08:45:49.023Z,98794.81
2022-08-28T08:48:53.183Z,98792.13
2022-08-28T08:52:00.118Z,98788.75
2022-08-28T08:55:16.566Z,98793.56
2022-08-28T08:58:22.363Z,98810.91
2022-08-28T09:01:27.941Z,98808.38
2022-08-28T09:04:34.786Z,98800.19
2022-08-28T09:07:39.106Z,98806.47
2022-08-28T09:10:43.233Z,98804.19
2022-08-28T09:13:51.073Z,98809.31
2022-08-28T09:16:56.114Z,98808.97
2022-08-28T09:19:59.133Z,98806.47
2022-08-28T09:23:00.603Z,98803.91
2022-08-28T09:26:06.003Z,98800.63
2022-08-28T09:29:16.564Z,98797.91
2022-08-28T09:32:22.523Z,98804.06
2022-08-28T09:35:29.736Z,98802.25
2022-08-28T09:38:31.324Z,98801.75
2022-08-28T09:41:51.530Z,98802.72
2022-08-28T09:44:59.778Z,98822.09
2022-08-28T09:48:03.593Z,98805.38
2022-08-28T09:51:08.017Z,98807.44
2022-08-28T09:54:16.884Z,98810.91
2022-08-28T09:57:18.622Z,98800.00
2022-08-28T10:00:20.255Z,98796.88
2022-08-28T10:03:23.862Z,98797.78
2022-08-28T10:06:29.394Z,98790.22
2022-08-28T10:09:34.148Z,98800.72
2022-08-28T10:12:40.658Z,98811.72
2022-08-28T10:15:50.857Z,98807.94
2022-08-28T10:18:56.736Z,98817.66
2022-08-28T10:22:04.987Z,98808.16
2022-08-28T10:25:16.527Z,98810.09
2022-08-28T10:28:26.023Z,98812.16
2022-08-28T10:31:31.810Z,98807.59
2022-08-28T10:34:40.122Z,98811.59
2022-08-28T10:37:50.997Z,98807.28
2022-08-28T10:40:55.752Z,98809.75
2022-08-28T10:44:01.543Z,98807.13
2022-08-28T10:47:04.260Z,98807.78
2022-08-28T10:50:08.699Z,98809.16
2022-08-28T10:53:13.661Z,98806.78
2022-08-28T10:56:19.740Z,98804.06
2022-08-28T10:59:21.627Z,98801.47
2022-08-28T11:02:25.365Z,98791.84
2022-08-28T11:05:29.500Z,98800.69
2022-08-28T11:08:34.470Z,98796.75
2022-08-28T11:11:40.938Z,98791.78
2022-08-28T11:14:47.950Z,98790.28
2022-08-28T11:17:50.716Z,98799.63
2022-08-28T11:20:57.366Z,98794.06
2022-08-28T11:24:06.011Z,98799.00
2022-08-28T11:27:19.451Z,98802.94
2022-08-28T11:30:31.277Z,98802.84
2022-08-28T11:33:38.285Z,98803.13
2022-08-28T11:36:56.843Z,98798.84
2022-08-28T11:40:13.287Z,98799.38
2022-08-28T11:43:30.090Z,98793.56
2022-08-28T11:46:34.301Z,98803.22
2022-08-28T11:49:40.669Z,98796.56
2022-08-28T11:52:57.083Z,98799.41
2022-08-28T11:56:13.508Z,98797.56
2022-08-28T11:59:42.021Z,98782.66
2022-08-28T12:02:50.127Z,98803.47
2022-08-28T12:05:54.580Z,98791.09
2022-08-28T12:09:05.226Z,98808.31
2022-08-28T12:12:10.414Z,98799.22
2022-08-28T12:15:34.393Z,98793.81
2022-08-28T12:18:54.531Z,98809.31
2022-08-28T12:21:57.729Z,98794.56
2022-08-28T12:25:01.339Z,98803.44
2022-08-28T12:28:17.403Z,98799.38
2022-08-28T12:31:48.547Z,98794.81
2022-08-28T12:34:53.297Z,98795.94
2022-08-28T12:38:03.769Z,98790.66
2022-08-28T12:41:15.541Z,98791.91
2022-08-28T12:44:22.139Z,98787.94
2022-08-28T12:47:25.678Z,98787.22
2022-08-28T12:50:29.463Z,98788.94
2022-08-28T12:53:41.152Z,98778.72
2022-08-28T12:56:42.654Z,98793.72
2022-08-28T12:59:45.029Z,98788.19
2022-08-28T13:06:05.004Z,98796.81
2022-08-28T13:09:16.212Z,98789.06
2022-08-28T13:12:19.119Z,98784.63
2022-08-28T13:15:39.528Z,98779.50
2022-08-28T13:18:43.748Z,98781.06
2022-08-28T13:21:52.749Z,98780.84
2022-08-28T13:24:59.255Z,98783.44
2022-08-28T13:28:03.112Z,98774.31
2022-08-28T13:31:04.956Z,98780.44
2022-08-28T13:34:07.888Z,98779.88
2022-08-28T13:37:19.788Z,98775.31
2022-08-28T13:43:47.870Z,98777.34
2022-08-28T13:46:49.862Z,98777.94
2022-08-28T13:49:51.705Z,98760.69
2022-08-28T13:52:53.268Z,98774.09
2022-08-28T13:55:58.623Z,98771.25
2022-08-28T13:59:00.369Z,98770.53
2022-08-28T14:02:22.133Z,98768.91
2022-08-28T14:05:24.476Z,98764.69
2022-08-28T14:08:26.164Z,98765.78
2022-08-28T14:11:29.347Z,98760.72
2022-08-28T14:14:32.338Z,98767.56
2022-08-28T14:17:34.070Z,98768.81
2022-08-28T14:20:37.764Z,98765.00
2022-08-28T14:23:39.330Z,98757.00
2022-08-28T14:26:42.348Z,98759.97
2022-08-28T14:29:43.829Z,98754.63
2022-08-28T14:32:45.482Z,98757.91
2022-08-28T14:35:47.331Z,98760.09
2022-08-28T14:38:54.558Z,98753.94
2022-08-28T14:41:57.733Z,98754.53
2022-08-28T14:44:59.310Z,98750.44
2022-08-28T14:48:00.860Z,98748.72
2022-08-28T14:51:02.528Z,98743.41
2022-08-28T14:54:04.873Z,98744.69
2022-08-28T14:57:08.010Z,98749.72
2022-08-28T15:00:16.133Z,98751.56
2022-08-28T15:03:19.078Z,98748.50
2022-08-28T15:06:20.699Z,98739.44
2022-08-28T15:09:22.623Z,98750.66
2022-08-28T15:12:29.339Z,98743.91
2022-08-28T15:15:32.575Z,98748.47
2022-08-28T15:18:34.674Z,98752.50
2022-08-28T15:21:39.653Z,98756.69
2022-08-28T15:24:41.434Z,98756.34
2022-08-28T15:27:44.341Z,98747.34
2022-08-28T15:30:46.681Z,98748.28
2022-08-28T15:33:48.257Z,98755.09
2022-08-28T15:36:55.044Z,98755.34
2022-08-28T15:40:16.634Z,98754.34
2022-08-28T15:43:20.007Z,98747.94
2022-08-28T15:46:21.811Z,98748.63
2022-08-28T15:49:24.200Z,98754.16
2022-08-28T15:52:25.904Z,98744.66
2022-08-28T15:55:27.731Z,98746.00
2022-08-28T15:58:33.848Z,98753.50
2022-08-28T16:01:35.519Z,98758.19
2022-08-28T16:04:37.270Z,98750.56
2022-08-28T16:07:38.909Z,98758.25
2022-08-28T16:10:41.016Z,98763.19
2022-08-28T16:13:44.105Z,98757.81
2022-08-28T16:16:46.455Z,98766.78
2022-08-28T16:19:50.910Z,98754.38
2022-08-28T16:22:53.021Z,98765.47
2022-08-28T16:25:55.676Z,98768.03
2022-08-28T16:28:58.591Z,98765.50
2022-08-28T16:32:00.552Z,98774.13
2022-08-28T16:35:03.552Z,98773.66
2022-08-28T16:38:08.534Z,98772.44
2022-08-28T16:41:10.915Z,98768.50
2022-08-28T16:44:13.924Z,98765.41
2022-08-28T16:47:15.859Z,98760.34
2022-08-28T16:50:17.927Z,98766.28
2022-08-28T16:53:21.238Z,98766.00
2022-08-28T16:56:29.068Z,98766.88
2022-08-28T16:59:32.580Z,98759.63
2022-08-28T17:02:34.160Z,98764.06
2022-08-28T17:05:36.796Z,98760.38
2022-08-28T17:08:40.449Z,98760.16
2022-08-28T17:11:42.149Z,98751.53
2022-08-28T17:14:48.379Z,98753.88
2022-08-28T17:17:49.987Z,98752.41
2022-08-28T17:21:10.132Z,98758.06
2022-08-28T17:24:12.630Z,98759.50
2022-08-28T17:27:16.700Z,98764.06
2022-08-28T17:30:25.619Z,98761.09
2022-08-28T17:33:27.215Z,98772.09
2022-08-28T17:36:33.019Z,98771.50
2022-08-28T17:39:36.091Z,98773.81
2022-08-28T17:42:38.053Z,98777.75
2022-08-28T17:45:43.619Z,98771.81
2022-08-28T17:48:55.738Z,98777.72
2022-08-28T17:51:57.980Z,98786.91
2022-08-28T17:54:59.769Z,98777.44
2022-08-28T17:58:01.592Z,98784.06
2022-08-28T18:01:04.589Z,98786.97
2022-08-28T18:04:06.296Z,98788.31
2022-08-28T18:07:07.912Z,98787.91
2022-08-28T18:10:13.161Z,98784.72
2022-08-28T18:13:15.229Z,98788.84
2022-08-28T18:16:18.466Z,98783.06
2022-08-28T18:19:20.230Z,98792.34
2022-08-28T18:22:24.427Z,98796.13
2022-08-28T18:25:50.782Z,98791.09
2022-08-28T18:28:52.959Z,98787.84
2022-08-28T18:31:56.523Z,98797.16
2022-08-28T18:34:58.018Z,98801.78
2022-08-28T18:38:00.160Z,98799.19
2022-08-28T18:41:11.780Z,98804.19
2022-08-28T18:44:13.844Z,98811.63
2022-08-28T18:47:16.672Z,98806.47
2022-08-28T18:50:21.965Z,98809.63
2022-08-28T18:53:24.094Z,98814.34
2022-08-28T18:56:25.620Z,98816.19
2022-08-28T18:59:33.901Z,98820.34
2022-08-28T19:02:41.320Z,98823.97
2022-08-28T19:05:43.367Z,98830.56
2022-08-28T19:08:46.079Z,98835.47
2022-08-28T19:11:47.792Z,98834.91
2022-08-28T19:14:52.246Z,98834.50
2022-08-28T19:17:55.264Z,98836.41
2022-08-28T19:21:03.148Z,98844.00
2022-08-28T19:24:05.124Z,98850.47
2022-08-28T19:27:06.927Z,98848.06
2022-08-28T19:30:09.963Z,98852.19
2022-08-28T19:33:12.941Z,98854.31
2022-08-28T19:36:14.801Z,98859.94
2022-08-28T19:39:16.717Z,98864.66
2022-08-28T19:42:18.664Z,98864.25
2022-08-28T19:45:20.920Z,98868.09
2022-08-28T19:48:23.788Z,98866.38
2022-08-28T19:51:26.103Z,98867.47
2022-08-28T19:54:27.831Z,98872.28
2022-08-28T19:57:29.488Z,98871.53
2022-08-28T20:00:32.997Z,98873.75
2022-08-28T20:03:38.860Z,98882.34
2022-08-28T20:06:40.614Z,98887.22
2022-08-28T20:09:42.174Z,98882.78
2022-08-28T20:12:48.640Z,98888.47
2022-08-28T20:15:50.600Z,98889.44
2022-08-28T20:18:53.519Z,98895.78
2022-08-28T20:21:55.773Z,98889.75
2022-08-28T20:24:57.467Z,98901.56
2022-08-28T20:28:02.088Z,98898.56
2022-08-28T20:31:07.279Z,98904.22
2022-08-28T20:34:12.322Z,98900.22
2022-08-28T20:37:14.010Z,98913.97
2022-08-28T20:40:20.030Z,98909.88
2022-08-28T20:43:21.669Z,98914.66
2022-08-28T20:46:23.551Z,98922.28
2022-08-28T20:49:26.739Z,98920.09
2022-08-28T20:52:28.308Z,98920.47
2022-08-28T20:55:30.080Z,98927.22
2022-08-28T20:58:31.877Z,98929.38
2022-08-28T21:01:34.002Z,98928.72
2022-08-28T21:04:38.791Z,98925.06
2022-08-28T21:07:40.498Z,98931.88
2022-08-28T21:10:43.059Z,98935.03
2022-08-28T21:13:44.691Z,98931.03
2022-08-28T21:16:46.333Z,98927.63
2022-08-28T21:19:50.621Z,98942.16
2022-08-28T21:22:54.331Z,98940.63
2022-08-28T21:25:55.857Z,98932.81
2022-08-28T21:28:57.746Z,98935.72
2022-08-28T21:31:59.274Z,98932.25
2022-08-28T21:35:03.568Z,98934.19
2022-08-28T21:38:05.283Z,98936.16
2022-08-28T21:41:12.381Z,98932.81
2022-08-28T21:44:14.138Z,98932.13
2022-08-28T21:47:15.753Z,98931.38
2022-08-28T21:50:19.066Z,98931.53
2022-08-28T21:53:20.689Z,98930.75
2022-08-28T21:56:24.104Z,98934.63
2022-08-28T21:59:25.617Z,98932.94
2022-08-28T22:02:32.032Z,98933.25
2022-08-28T22:05:35.215Z,98933.13
2022-08-28T22:08:37.936Z,98935.25
2022-08-28T22:11:39.796Z,98934.97
2022-08-28T22:14:42.274Z,98935.16
2022-08-28T22:17:44.647Z,98935.25
2022-08-28T22:21:06.440Z,98928.72
2022-08-28T22:24:08.712Z,98927.09
2022-08-28T22:27:14.229Z,98933.59
2022-08-28T22:30:15.796Z,98921.09
2022-08-28T22:33:17.457Z,98919.38
2022-08-28T22:36:20.669Z,98917.66
2022-08-28T22:39:22.509Z,98928.50
2022-08-28T22:42:24.185Z,98928.59
2022-08-28T22:45:26.149Z,98927.06
2022-08-28T22:48:27.787Z,98922.03
2022-08-28T22:51:34.448Z,98925.88
2022-08-28T22:54:35.953Z,98913.56
2022-08-28T22:57:37.427Z,98920.16
2022-08-28T23:00:40.184Z,98929.19
2022-08-28T23:03:42.095Z,98928.72
2022-08-28T23:06:45.433Z,98932.81
2022-08-28T23:09:47.696Z,98924.94
2022-08-28T23:12:49.243Z,98930.31
2022-08-28T23:15:51.062Z,98921.47
2022-08-28T23:19:08.789Z,98927.97
2022-08-28T23:22:12.304Z,98920.28
2022-08-28T23:25:15.715Z,98924.94
2022-08-28T23:28:17.638Z,98927.63
2022-08-28T23:31:19.349Z,98926.84
2022-08-28T23:34:21.393Z,98925.28
2022-08-28T23:37:24.364Z,98918.28
2022-08-28T23:40:26.139Z,98918.44
2022-08-28T23:43:29.763Z,98917.84
2022-08-28T23:46:31.429Z,98920.69
2022-08-28T23:49:33.038Z,98921.81
2022-08-28T23:52:36.254Z,98923.09
2022-08-28T23:55:39.534Z,98920.69
2022-08-28T23:58:43.345Z,98914.53
